sensor_id;sensor_type;location;lat;lon;timestamp;P1;durP1;ratioP1;P2;durP2;ratioP2
5454;SDS011;2750;49.050;9.250;2023-06-14T00:00:25;6.10;;;5.50;;
5454;SDS011;2750;49.050;9.250;2023-06-14T00:05:27;5.87;;;5.27;;
5454;SDS011;2750;49.050;9.250;2023-06-14T00:10:31;5.80;;;5.30;;
5454;SDS011;2750;49.050;9.250;2023-06-14T00:15:35;5.13;;;4.63;;
5454;SDS011;2750;49.050;9.250;2023-06-14T00:20:36;5.53;;;5.03;;
5454;SDS011;2750;49.050;9.250;2023-06-14T00:25:40;8.13;;;5.30;;
5454;SDS011;2750;49.050;9.250;2023-06-14T00:30:42;6.87;;;5.47;;
5454;SDS011;2750;49.050;9.250;2023-06-14T00:35:45;7.93;;;5.53;;
5454;SDS011;2750;49.050;9.250;2023-06-14T00:40:48;6.70;;;5.60;;
5454;SDS011;2750;49.050;9.250;2023-06-14T00:45:49;5.13;;;4.73;;
5454;SDS011;2750;49.050;9.250;2023-06-14T00:50:51;5.93;;;4.83;;
5454;SDS011;2750;49.050;9.250;2023-06-14T00:55:54;5.43;;;5.03;;
5454;SDS011;2750;49.050;9.250;2023-06-14T01:00:55;7.03;;;5.13;;
5454;SDS011;2750;49.050;9.250;2023-06-14T01:05:59;5.80;;;4.93;;
5454;SDS011;2750;49.050;9.250;2023-06-14T01:11:17;6.90;;;4.90;;
5454;SDS011;2750;49.050;9.250;2023-06-14T01:16:23;7.23;;;5.13;;
5454;SDS011;2750;49.050;9.250;2023-06-14T01:21:25;5.83;;;5.23;;
5454;SDS011;2750;49.050;9.250;2023-06-14T01:26:29;6.87;;;5.10;;
5454;SDS011;2750;49.050;9.250;2023-06-14T01:31:31;5.23;;;4.73;;
5454;SDS011;2750;49.050;9.250;2023-06-14T01:36:41;6.77;;;6.17;;
5454;SDS011;2750;49.050;9.250;2023-06-14T01:41:46;4.93;;;4.53;;
5454;SDS011;2750;49.050;9.250;2023-06-14T01:46:50;7.30;;;6.00;;
5454;SDS011;2750;49.050;9.250;2023-06-14T01:51:52;5.60;;;5.10;;
5454;SDS011;2750;49.050;9.250;2023-06-14T01:56:55;6.13;;;5.10;;
5454;SDS011;2750;49.050;9.250;2023-06-14T02:01:56;5.70;;;5.10;;
5454;SDS011;2750;49.050;9.250;2023-06-14T02:06:58;6.43;;;4.80;;
5454;SDS011;2750;49.050;9.250;2023-06-14T02:12:01;5.40;;;4.90;;
5454;SDS011;2750;49.050;9.250;2023-06-14T02:17:02;5.30;;;4.83;;
5454;SDS011;2750;49.050;9.250;2023-06-14T02:22:04;5.83;;;5.23;;
5454;SDS011;2750;49.050;9.250;2023-06-14T02:27:07;6.60;;;5.77;;
5454;SDS011;2750;49.050;9.250;2023-06-14T02:32:10;6.67;;;5.77;;
5454;SDS011;2750;49.050;9.250;2023-06-14T02:37:11;10.60;;;6.23;;
5454;SDS011;2750;49.050;9.250;2023-06-14T02:42:14;6.80;;;5.80;;
5454;SDS011;2750;49.050;9.250;2023-06-14T02:47:15;7.37;;;5.30;;
5454;SDS011;2750;49.050;9.250;2023-06-14T02:52:17;7.07;;;4.67;;
5454;SDS011;2750;49.050;9.250;2023-06-14T02:57:20;8.57;;;5.30;;
5454;SDS011;2750;49.050;9.250;2023-06-14T03:02:23;5.67;;;5.07;;
5454;SDS011;2750;49.050;9.250;2023-06-14T03:07:24;5.40;;;4.87;;
5454;SDS011;2750;49.050;9.250;2023-06-14T03:12:29;7.70;;;5.30;;
5454;SDS011;2750;49.050;9.250;2023-06-14T03:17:31;7.57;;;5.20;;
5454;SDS011;2750;49.050;9.250;2023-06-14T03:22:33;6.00;;;5.40;;
5454;SDS011;2750;49.050;9.250;2023-06-14T03:27:36;5.93;;;5.33;;
5454;SDS011;2750;49.050;9.250;2023-06-14T03:32:37;7.30;;;5.23;;
5454;SDS011;2750;49.050;9.250;2023-06-14T03:37:39;7.03;;;5.57;;
5454;SDS011;2750;49.050;9.250;2023-06-14T03:42:42;6.17;;;4.40;;
5454;SDS011;2750;49.050;9.250;2023-06-14T03:47:43;6.43;;;5.43;;
5454;SDS011;2750;49.050;9.250;2023-06-14T03:52:47;5.50;;;5.00;;
5454;SDS011;2750;49.050;9.250;2023-06-14T03:57:50;5.30;;;4.47;;
5454;SDS011;2750;49.050;9.250;2023-06-14T04:02:51;6.77;;;5.83;;
5454;SDS011;2750;49.050;9.250;2023-06-14T04:07:53;5.60;;;5.07;;
5454;SDS011;2750;49.050;9.250;2023-06-14T04:12:57;6.40;;;5.43;;
5454;SDS011;2750;49.050;9.250;2023-06-14T04:17:58;5.77;;;5.27;;
5454;SDS011;2750;49.050;9.250;2023-06-14T04:23:11;7.13;;;5.40;;
5454;SDS011;2750;49.050;9.250;2023-06-14T04:28:14;7.70;;;5.90;;
5454;SDS011;2750;49.050;9.250;2023-06-14T04:33:17;8.40;;;6.57;;
5454;SDS011;2750;49.050;9.250;2023-06-14T04:38:19;9.17;;;5.70;;
5454;SDS011;2750;49.050;9.250;2023-06-14T04:43:26;7.00;;;6.30;;
5454;SDS011;2750;49.050;9.250;2023-06-14T04:48:27;6.67;;;6.07;;
5454;SDS011;2750;49.050;9.250;2023-06-14T04:53:29;9.57;;;6.73;;
5454;SDS011;2750;49.050;9.250;2023-06-14T04:58:32;11.43;;;6.63;;
5454;SDS011;2750;49.050;9.250;2023-06-14T05:03:34;7.13;;;6.37;;
5454;SDS011;2750;49.050;9.250;2023-06-14T05:08:35;8.87;;;6.80;;
5454;SDS011;2750;49.050;9.250;2023-06-14T05:13:38;6.97;;;6.10;;
5454;SDS011;2750;49.050;9.250;2023-06-14T05:18:41;7.33;;;6.40;;
5454;SDS011;2750;49.050;9.250;2023-06-14T05:23:42;9.57;;;6.70;;
5454;SDS011;2750;49.050;9.250;2023-06-14T05:28:45;6.87;;;6.33;;
5454;SDS011;2750;49.050;9.250;2023-06-14T05:33:47;7.70;;;6.97;;
5454;SDS011;2750;49.050;9.250;2023-06-14T05:38:48;7.23;;;6.60;;
5454;SDS011;2750;49.050;9.250;2023-06-14T05:43:52;8.30;;;7.43;;
5454;SDS011;2750;49.050;9.250;2023-06-14T05:48:54;8.40;;;6.77;;
5454;SDS011;2750;49.050;9.250;2023-06-14T05:53:56;7.23;;;6.57;;
5454;SDS011;2750;49.050;9.250;2023-06-14T05:58:59;9.40;;;7.20;;
5454;SDS011;2750;49.050;9.250;2023-06-14T06:04:01;7.80;;;6.93;;
5454;SDS011;2750;49.050;9.250;2023-06-14T06:09:02;7.77;;;6.97;;
5454;SDS011;2750;49.050;9.250;2023-06-14T06:14:06;9.00;;;7.00;;
5454;SDS011;2750;49.050;9.250;2023-06-14T06:19:07;7.97;;;6.83;;
5454;SDS011;2750;49.050;9.250;2023-06-14T06:24:09;9.87;;;7.17;;
5454;SDS011;2750;49.050;9.250;2023-06-14T06:29:12;7.40;;;6.67;;
5454;SDS011;2750;49.050;9.250;2023-06-14T06:34:14;6.90;;;6.30;;
5454;SDS011;2750;49.050;9.250;2023-06-14T06:39:15;7.70;;;6.63;;
5454;SDS011;2750;49.050;9.250;2023-06-14T06:44:18;6.83;;;6.33;;
5454;SDS011;2750;49.050;9.250;2023-06-14T06:49:19;7.43;;;6.70;;
5454;SDS011;2750;49.050;9.250;2023-06-14T06:54:21;6.93;;;6.13;;
5454;SDS011;2750;49.050;9.250;2023-06-14T06:59:24;9.67;;;7.13;;
5454;SDS011;2750;49.050;9.250;2023-06-14T07:04:26;7.00;;;6.40;;
5454;SDS011;2750;49.050;9.250;2023-06-14T07:09:27;6.70;;;6.03;;
5454;SDS011;2750;49.050;9.250;2023-06-14T07:14:30;7.33;;;6.73;;
5454;SDS011;2750;49.050;9.250;2023-06-14T07:19:31;9.90;;;6.50;;
5454;SDS011;2750;49.050;9.250;2023-06-14T07:24:33;6.57;;;5.83;;
5454;SDS011;2750;49.050;9.250;2023-06-14T07:29:37;6.97;;;6.27;;
5454;SDS011;2750;49.050;9.250;2023-06-14T07:34:39;8.73;;;6.23;;
5454;SDS011;2750;49.050;9.250;2023-06-14T07:39:40;6.80;;;5.60;;
5454;SDS011;2750;49.050;9.250;2023-06-14T07:44:43;6.60;;;6.00;;
5454;SDS011;2750;49.050;9.250;2023-06-14T07:49:45;7.03;;;6.07;;
5454;SDS011;2750;49.050;9.250;2023-06-14T07:54:46;6.70;;;5.73;;
5454;SDS011;2750;49.050;9.250;2023-06-14T07:59:49;6.23;;;5.73;;
5454;SDS011;2750;49.050;9.250;2023-06-14T08:04:51;6.65;;;5.97;;
5454;SDS011;2750;49.050;9.250;2023-06-14T08:09:52;6.10;;;5.50;;
5454;SDS011;2750;49.050;9.250;2023-06-14T08:14:55;6.00;;;5.50;;
5454;SDS011;2750;49.050;9.250;2023-06-14T08:19:56;5.72;;;5.22;;
5454;SDS011;2750;49.050;9.250;2023-06-14T08:24:58;8.00;;;5.53;;
5454;SDS011;2750;49.050;9.250;2023-06-14T08:30:01;8.90;;;5.75;;
5454;SDS011;2750;49.050;9.250;2023-06-14T08:35:03;6.25;;;5.63;;
5454;SDS011;2750;49.050;9.250;2023-06-14T08:40:08;5.78;;;5.35;;
5454;SDS011;2750;49.050;9.250;2023-06-14T08:45:20;6.57;;;5.60;;
5454;SDS011;2750;49.050;9.250;2023-06-14T08:50:22;7.93;;;5.45;;
5454;SDS011;2750;49.050;9.250;2023-06-14T08:55:30;8.45;;;5.60;;
5454;SDS011;2750;49.050;9.250;2023-06-14T09:00:34;5.85;;;5.25;;
5454;SDS011;2750;49.050;9.250;2023-06-14T09:05:38;6.05;;;5.13;;
5454;SDS011;2750;49.050;9.250;2023-06-14T09:10:40;6.00;;;5.50;;
5454;SDS011;2750;49.050;9.250;2023-06-14T09:15:43;7.57;;;5.77;;
5454;SDS011;2750;49.050;9.250;2023-06-14T09:20:44;6.70;;;5.87;;
5454;SDS011;2750;49.050;9.250;2023-06-14T09:25:47;6.10;;;5.60;;
5454;SDS011;2750;49.050;9.250;2023-06-14T09:30:50;6.13;;;5.57;;
5454;SDS011;2750;49.050;9.250;2023-06-14T09:35:51;6.75;;;6.07;;
5454;SDS011;2750;49.050;9.250;2023-06-14T09:40:54;6.90;;;5.68;;
5454;SDS011;2750;49.050;9.250;2023-06-14T09:45:58;6.13;;;5.60;;
5454;SDS011;2750;49.050;9.250;2023-06-14T09:51:01;5.72;;;5.22;;
5454;SDS011;2750;49.050;9.250;2023-06-14T09:56:03;5.38;;;4.78;;
5454;SDS011;2750;49.050;9.250;2023-06-14T10:01:08;7.88;;;5.28;;
5454;SDS011;2750;49.050;9.250;2023-06-14T10:06:13;5.10;;;4.60;;
5454;SDS011;2750;49.050;9.250;2023-06-14T10:11:16;6.90;;;4.45;;
5454;SDS011;2750;49.050;9.250;2023-06-14T10:16:20;4.57;;;4.18;;
5454;SDS011;2750;49.050;9.250;2023-06-14T10:21:26;6.45;;;4.78;;
5454;SDS011;2750;49.050;9.250;2023-06-14T10:26:33;6.28;;;4.97;;
5454;SDS011;2750;49.050;9.250;2023-06-14T10:31:42;5.97;;;4.30;;
5454;SDS011;2750;49.050;9.250;2023-06-14T10:36:44;5.20;;;4.70;;
5454;SDS011;2750;49.050;9.250;2023-06-14T10:41:52;4.65;;;3.90;;
5454;SDS011;2750;49.050;9.250;2023-06-14T10:46:59;5.28;;;4.78;;
5454;SDS011;2750;49.050;9.250;2023-06-14T10:52:02;4.60;;;4.20;;
5454;SDS011;2750;49.050;9.250;2023-06-14T10:57:06;5.18;;;4.45;;
5454;SDS011;2750;49.050;9.250;2023-06-14T11:02:13;5.15;;;4.65;;
5454;SDS011;2750;49.050;9.250;2023-06-14T11:07:32;5.38;;;4.43;;
5454;SDS011;2750;49.050;9.250;2023-06-14T11:12:44;4.75;;;4.28;;
5454;SDS011;2750;49.050;9.250;2023-06-14T11:17:51;5.13;;;4.63;;
5454;SDS011;2750;49.050;9.250;2023-06-14T11:22:53;5.10;;;4.00;;
5454;SDS011;2750;49.050;9.250;2023-06-14T11:27:55;4.93;;;4.28;;
5454;SDS011;2750;49.050;9.250;2023-06-14T11:32:59;6.80;;;4.55;;
5454;SDS011;2750;49.050;9.250;2023-06-14T11:38:01;4.75;;;4.35;;
5454;SDS011;2750;49.050;9.250;2023-06-14T11:43:03;4.63;;;4.15;;
5454;SDS011;2750;49.050;9.250;2023-06-14T11:48:06;9.45;;;4.50;;
5454;SDS011;2750;49.050;9.250;2023-06-14T11:53:08;5.10;;;4.65;;
5454;SDS011;2750;49.050;9.250;2023-06-14T11:58:10;5.72;;;5.18;;
5454;SDS011;2750;49.050;9.250;2023-06-14T12:03:13;4.75;;;4.20;;
5454;SDS011;2750;49.050;9.250;2023-06-14T12:08:14;8.82;;;4.38;;
5454;SDS011;2750;49.050;9.250;2023-06-14T12:13:17;4.75;;;4.35;;
5454;SDS011;2750;49.050;9.250;2023-06-14T12:18:21;5.00;;;4.60;;
5454;SDS011;2750;49.050;9.250;2023-06-14T12:23:38;5.20;;;4.70;;
5454;SDS011;2750;49.050;9.250;2023-06-14T12:28:41;4.95;;;4.55;;
5454;SDS011;2750;49.050;9.250;2023-06-14T12:33:44;5.38;;;4.88;;
5454;SDS011;2750;49.050;9.250;2023-06-14T12:38:48;6.07;;;4.82;;
5454;SDS011;2750;49.050;9.250;2023-06-14T12:43:53;6.25;;;4.57;;
5454;SDS011;2750;49.050;9.250;2023-06-14T12:48:56;5.15;;;4.65;;
5454;SDS011;2750;49.050;9.250;2023-06-14T12:53:57;5.20;;;4.70;;
5454;SDS011;2750;49.050;9.250;2023-06-14T12:58:59;6.03;;;4.90;;
5454;SDS011;2750;49.050;9.250;2023-06-14T13:04:01;5.50;;;5.07;;
5454;SDS011;2750;49.050;9.250;2023-06-14T13:09:03;7.32;;;5.18;;
5454;SDS011;2750;49.050;9.250;2023-06-14T13:14:05;5.43;;;4.90;;
5454;SDS011;2750;49.050;9.250;2023-06-14T13:19:07;5.22;;;4.68;;
5454;SDS011;2750;49.050;9.250;2023-06-14T13:24:09;7.45;;;4.85;;
5454;SDS011;2750;49.050;9.250;2023-06-14T13:29:10;5.47;;;4.97;;
5454;SDS011;2750;49.050;9.250;2023-06-14T13:34:13;4.55;;;4.15;;
5454;SDS011;2750;49.050;9.250;2023-06-14T13:39:14;5.45;;;4.25;;
5454;SDS011;2750;49.050;9.250;2023-06-14T13:44:16;4.90;;;4.40;;
5454;SDS011;2750;49.050;9.250;2023-06-14T13:49:22;5.13;;;4.63;;
5454;SDS011;2750;49.050;9.250;2023-06-14T13:54:23;5.32;;;4.93;;
5454;SDS011;2750;49.050;9.250;2023-06-14T13:59:25;6.80;;;4.80;;
5454;SDS011;2750;49.050;9.250;2023-06-14T14:04:28;5.05;;;4.65;;
5454;SDS011;2750;49.050;9.250;2023-06-14T14:09:29;4.60;;;4.20;;
5454;SDS011;2750;49.050;9.250;2023-06-14T14:14:32;5.00;;;4.18;;
5454;SDS011;2750;49.050;9.250;2023-06-14T14:19:34;5.00;;;4.50;;
5454;SDS011;2750;49.050;9.250;2023-06-14T14:24:36;6.97;;;5.30;;
5454;SDS011;2750;49.050;9.250;2023-06-14T14:29:37;5.82;;;4.57;;
5454;SDS011;2750;49.050;9.250;2023-06-14T14:34:40;5.15;;;4.53;;
5454;SDS011;2750;49.050;9.250;2023-06-14T14:39:43;5.25;;;4.72;;
5454;SDS011;2750;49.050;9.250;2023-06-14T14:44:45;5.15;;;4.75;;
5454;SDS011;2750;49.050;9.250;2023-06-14T14:49:48;5.05;;;4.65;;
5454;SDS011;2750;49.050;9.250;2023-06-14T14:54:49;7.07;;;5.07;;
5454;SDS011;2750;49.050;9.250;2023-06-14T14:59:51;6.88;;;4.88;;
5454;SDS011;2750;49.050;9.250;2023-06-14T15:04:54;7.07;;;4.30;;
5454;SDS011;2750;49.050;9.250;2023-06-14T15:09:57;4.45;;;4.05;;
5454;SDS011;2750;49.050;9.250;2023-06-14T15:14:58;4.93;;;4.53;;
5454;SDS011;2750;49.050;9.250;2023-06-14T15:20:01;5.18;;;4.63;;
5454;SDS011;2750;49.050;9.250;2023-06-14T15:25:03;5.47;;;4.88;;
5454;SDS011;2750;49.050;9.250;2023-06-14T15:30:06;6.88;;;4.68;;
5454;SDS011;2750;49.050;9.250;2023-06-14T15:35:09;5.35;;;4.95;;
5454;SDS011;2750;49.050;9.250;2023-06-14T15:40:12;5.28;;;4.78;;
5454;SDS011;2750;49.050;9.250;2023-06-14T15:45:13;6.43;;;4.72;;
5454;SDS011;2750;49.050;9.250;2023-06-14T15:50:17;5.05;;;4.65;;
5454;SDS011;2750;49.050;9.250;2023-06-14T15:55:18;5.80;;;4.80;;
5454;SDS011;2750;49.050;9.250;2023-06-14T16:00:20;6.50;;;4.47;;
5454;SDS011;2750;49.050;9.250;2023-06-14T16:05:24;5.65;;;5.13;;
5454;SDS011;2750;49.050;9.250;2023-06-14T16:10:25;5.20;;;4.70;;
5454;SDS011;2750;49.050;9.250;2023-06-14T16:15:27;8.15;;;4.97;;
5454;SDS011;2750;49.050;9.250;2023-06-14T16:20:29;4.68;;;4.28;;
5454;SDS011;2750;49.050;9.250;2023-06-14T16:25:31;5.55;;;4.65;;
5454;SDS011;2750;49.050;9.250;2023-06-14T16:30:32;5.47;;;4.90;;
5454;SDS011;2750;49.050;9.250;2023-06-14T16:35:35;7.32;;;4.80;;
5454;SDS011;2750;49.050;9.250;2023-06-14T16:40:36;4.88;;;4.57;;
5454;SDS011;2750;49.050;9.250;2023-06-14T16:45:38;5.32;;;4.50;;
5454;SDS011;2750;49.050;9.250;2023-06-14T16:50:41;5.10;;;4.60;;
5454;SDS011;2750;49.050;9.250;2023-06-14T16:55:42;5.53;;;4.88;;
5454;SDS011;2750;49.050;9.250;2023-06-14T17:00:44;5.65;;;4.78;;
5454;SDS011;2750;49.050;9.250;2023-06-14T17:05:56;7.07;;;5.00;;
5454;SDS011;2750;49.050;9.250;2023-06-14T17:10:58;5.22;;;4.72;;
5454;SDS011;2750;49.050;9.250;2023-06-14T17:16:00;5.28;;;4.75;;
5454;SDS011;2750;49.050;9.250;2023-06-14T17:21:03;6.15;;;4.90;;
5454;SDS011;2750;49.050;9.250;2023-06-14T17:26:05;5.00;;;4.60;;
5454;SDS011;2750;49.050;9.250;2023-06-14T17:31:06;6.90;;;5.03;;
5454;SDS011;2750;49.050;9.250;2023-06-14T17:36:09;6.85;;;4.72;;
5454;SDS011;2750;49.050;9.250;2023-06-14T17:41:11;5.40;;;4.50;;
5454;SDS011;2750;49.050;9.250;2023-06-14T17:46:14;4.90;;;4.50;;
5454;SDS011;2750;49.050;9.250;2023-06-14T17:51:17;5.25;;;4.75;;
5454;SDS011;2750;49.050;9.250;2023-06-14T17:56:19;7.05;;;4.93;;
5454;SDS011;2750;49.050;9.250;2023-06-14T18:01:20;5.00;;;4.50;;
5454;SDS011;2750;49.050;9.250;2023-06-14T18:06:23;5.03;;;4.43;;
5454;SDS011;2750;49.050;9.250;2023-06-14T18:11:25;5.40;;;4.90;;
5454;SDS011;2750;49.050;9.250;2023-06-14T18:16:27;5.55;;;4.85;;
5454;SDS011;2750;49.050;9.250;2023-06-14T18:21:30;5.50;;;4.22;;
5454;SDS011;2750;49.050;9.250;2023-06-14T18:26:31;7.57;;;4.45;;
5454;SDS011;2750;49.050;9.250;2023-06-14T18:31:33;5.57;;;4.55;;
5454;SDS011;2750;49.050;9.250;2023-06-14T18:36:35;6.25;;;4.75;;
5454;SDS011;2750;49.050;9.250;2023-06-14T18:41:39;6.18;;;4.93;;
5454;SDS011;2750;49.050;9.250;2023-06-14T18:46:41;5.10;;;4.70;;
5454;SDS011;2750;49.050;9.250;2023-06-14T18:51:44;5.05;;;4.55;;
5454;SDS011;2750;49.050;9.250;2023-06-14T18:56:46;4.47;;;4.13;;
5454;SDS011;2750;49.050;9.250;2023-06-14T19:01:47;5.13;;;4.57;;
5454;SDS011;2750;49.050;9.250;2023-06-14T19:06:50;5.70;;;4.30;;
5454;SDS011;2750;49.050;9.250;2023-06-14T19:11:52;7.63;;;4.67;;
5454;SDS011;2750;49.050;9.250;2023-06-14T19:16:53;6.70;;;4.97;;
5454;SDS011;2750;49.050;9.250;2023-06-14T19:21:56;7.43;;;4.83;;
5454;SDS011;2750;49.050;9.250;2023-06-14T19:26:58;6.60;;;4.77;;
5454;SDS011;2750;49.050;9.250;2023-06-14T19:31:59;7.17;;;4.40;;
5454;SDS011;2750;49.050;9.250;2023-06-14T19:37:02;5.30;;;4.80;;
5454;SDS011;2750;49.050;9.250;2023-06-14T19:42:05;5.43;;;4.50;;
5454;SDS011;2750;49.050;9.250;2023-06-14T19:47:07;5.87;;;5.00;;
5454;SDS011;2750;49.050;9.250;2023-06-14T19:52:10;5.20;;;4.80;;
5454;SDS011;2750;49.050;9.250;2023-06-14T19:57:12;4.63;;;4.03;;
5454;SDS011;2750;49.050;9.250;2023-06-14T20:02:14;6.20;;;5.00;;
5454;SDS011;2750;49.050;9.250;2023-06-14T20:07:19;5.50;;;4.10;;
5454;SDS011;2750;49.050;9.250;2023-06-14T20:12:23;4.90;;;4.50;;
5454;SDS011;2750;49.050;9.250;2023-06-14T20:17:25;5.00;;;4.50;;
5454;SDS011;2750;49.050;9.250;2023-06-14T20:22:27;5.40;;;4.60;;
5454;SDS011;2750;49.050;9.250;2023-06-14T20:27:29;8.60;;;4.83;;
5454;SDS011;2750;49.050;9.250;2023-06-14T20:32:32;6.27;;;4.67;;
5454;SDS011;2750;49.050;9.250;2023-06-14T20:37:35;6.47;;;4.33;;
5454;SDS011;2750;49.050;9.250;2023-06-14T20:42:37;4.63;;;4.17;;
5454;SDS011;2750;49.050;9.250;2023-06-14T20:47:39;5.07;;;4.60;;
5454;SDS011;2750;49.050;9.250;2023-06-14T20:52:42;5.17;;;4.67;;
5454;SDS011;2750;49.050;9.250;2023-06-14T20:57:43;5.20;;;4.70;;
5454;SDS011;2750;49.050;9.250;2023-06-14T21:02:45;7.77;;;5.13;;
5454;SDS011;2750;49.050;9.250;2023-06-14T21:07:47;6.77;;;4.70;;
5454;SDS011;2750;49.050;9.250;2023-06-14T21:12:49;5.60;;;5.03;;
5454;SDS011;2750;49.050;9.250;2023-06-14T21:17:52;5.07;;;4.50;;
5454;SDS011;2750;49.050;9.250;2023-06-14T21:22:56;5.07;;;4.67;;
5454;SDS011;2750;49.050;9.250;2023-06-14T21:27:57;5.67;;;4.43;;
5454;SDS011;2750;49.050;9.250;2023-06-14T21:32:58;8.93;;;4.50;;
5454;SDS011;2750;49.050;9.250;2023-06-14T21:38:01;6.57;;;4.73;;
5454;SDS011;2750;49.050;9.250;2023-06-14T21:43:03;10.93;;;5.03;;
5454;SDS011;2750;49.050;9.250;2023-06-14T21:48:04;6.80;;;4.87;;
5454;SDS011;2750;49.050;9.250;2023-06-14T21:53:08;4.60;;;4.20;;
5454;SDS011;2750;49.050;9.250;2023-06-14T21:58:10;5.00;;;4.50;;
5454;SDS011;2750;49.050;9.250;2023-06-14T22:03:11;4.97;;;4.47;;
5454;SDS011;2750;49.050;9.250;2023-06-14T22:08:14;4.90;;;4.33;;
5454;SDS011;2750;49.050;9.250;2023-06-14T22:13:16;4.57;;;4.17;;
5454;SDS011;2750;49.050;9.250;2023-06-14T22:18:18;5.60;;;4.33;;
5454;SDS011;2750;49.050;9.250;2023-06-14T22:23:22;5.03;;;4.23;;
5454;SDS011;2750;49.050;9.250;2023-06-14T22:28:25;6.23;;;4.70;;
5454;SDS011;2750;49.050;9.250;2023-06-14T22:33:27;9.23;;;4.80;;
5454;SDS011;2750;49.050;9.250;2023-06-14T22:38:30;6.20;;;4.63;;
5454;SDS011;2750;49.050;9.250;2023-06-14T22:43:32;6.53;;;4.23;;
5454;SDS011;2750;49.050;9.250;2023-06-14T22:48:34;4.27;;;3.97;;
5454;SDS011;2750;49.050;9.250;2023-06-14T22:53:45;5.20;;;4.50;;
5454;SDS011;2750;49.050;9.250;2023-06-14T22:58:47;5.33;;;4.60;;
5454;SDS011;2750;49.050;9.250;2023-06-14T23:03:49;6.30;;;4.30;;
5454;SDS011;2750;49.050;9.250;2023-06-14T23:08:52;5.77;;;4.23;;
5454;SDS011;2750;49.050;9.250;2023-06-14T23:13:56;5.77;;;4.97;;
5454;SDS011;2750;49.050;9.250;2023-06-14T23:18:58;6.10;;;4.57;;
5454;SDS011;2750;49.050;9.250;2023-06-14T23:24:01;5.97;;;4.53;;
5454;SDS011;2750;49.050;9.250;2023-06-14T23:29:03;4.60;;;4.20;;
5454;SDS011;2750;49.050;9.250;2023-06-14T23:34:04;4.90;;;4.50;;
5454;SDS011;2750;49.050;9.250;2023-06-14T23:39:07;5.67;;;4.43;;
5454;SDS011;2750;49.050;9.250;2023-06-14T23:44:08;4.60;;;4.20;;
5454;SDS011;2750;49.050;9.250;2023-06-14T23:49:10;5.80;;;4.40;;
5454;SDS011;2750;49.050;9.250;2023-06-14T23:54:13;5.27;;;4.73;;
5454;SDS011;2750;49.050;9.250;2023-06-14T23:59:16;4.80;;;4.30;;
